createdAt,value
2019-02-24T00:00:11.065Z,99.90
2019-02-24T00:01:16.401Z,99.90
2019-02-24T00:02:20.022Z,99.90
2019-02-24T00:03:23.770Z,99.90
2019-02-24T00:04:27.383Z,99.90
2019-02-24T00:05:31.014Z,99.90
2019-02-24T00:06:34.651Z,99.90
2019-02-24T00:07:38.243Z,99.90
2019-02-24T00:08:41.916Z,99.90
2019-02-24T00:09:45.490Z,99.90
2019-02-24T00:10:49.129Z,99.90
2019-02-24T00:11:52.717Z,99.90
2019-02-24T00:12:56.408Z,99.90
2019-02-24T00:14:00.034Z,99.90
2019-02-24T00:15:04.411Z,99.90
2019-02-24T00:16:08.071Z,99.90
2019-02-24T00:17:11.698Z,99.90
2019-02-24T00:18:15.339Z,99.90
2019-02-24T00:19:18.947Z,99.90
2019-02-24T00:20:22.668Z,99.90
2019-02-24T00:21:26.259Z,99.90
2019-02-24T00:22:29.914Z,99.90
2019-02-24T00:23:33.594Z,99.90
2019-02-24T00:24:37.167Z,99.90
2019-02-24T00:25:40.830Z,99.90
2019-02-24T00:26:44.451Z,99.90
2019-02-24T00:27:48.147Z,99.90
2019-02-24T00:28:51.785Z,99.90
2019-02-24T00:29:55.426Z,99.90
2019-02-24T00:30:59.036Z,99.90
2019-02-24T00:32:02.699Z,99.90
2019-02-24T00:33:06.347Z,99.90
2019-02-24T00:34:09.926Z,99.90
2019-02-24T00:35:13.623Z,99.90
2019-02-24T00:36:17.214Z,99.90
2019-02-24T00:37:20.862Z,99.90
2019-02-24T00:38:24.518Z,99.90
2019-02-24T00:39:28.103Z,99.90
2019-02-24T00:40:31.705Z,99.90
2019-02-24T00:41:35.291Z,99.90
2019-02-24T00:42:38.946Z,99.90
2019-02-24T00:43:42.643Z,99.90
2019-02-24T00:44:46.297Z,99.90
2019-02-24T00:45:49.888Z,99.90
2019-02-24T00:46:53.517Z,99.90
2019-02-24T00:47:57.172Z,99.90
2019-02-24T00:49:00.778Z,99.90
2019-02-24T00:50:05.861Z,99.90
2019-02-24T00:51:09.450Z,99.90
2019-02-24T00:52:13.155Z,99.90
2019-02-24T00:53:16.758Z,99.90
2019-02-24T00:54:20.380Z,99.90
2019-02-24T00:55:24.034Z,99.90
2019-02-24T00:56:27.692Z,99.90
2019-02-24T00:57:31.318Z,99.90
2019-02-24T00:58:34.975Z,99.90
2019-02-24T00:59:38.639Z,99.90
2019-02-24T01:00:42.307Z,99.90
2019-02-24T01:01:45.937Z,99.90
2019-02-24T01:02:49.521Z,99.90
2019-02-24T01:03:53.106Z,99.90
2019-02-24T01:04:56.755Z,99.90
2019-02-24T01:06:00.378Z,99.90
2019-02-24T01:07:04.065Z,99.90
2019-02-24T01:08:08.025Z,99.90
2019-02-24T01:09:11.663Z,99.90
2019-02-24T01:10:15.255Z,99.90
2019-02-24T01:11:18.852Z,99.90
2019-02-24T01:12:22.460Z,99.90
2019-02-24T01:13:26.044Z,99.90
2019-02-24T01:14:29.719Z,99.90
2019-02-24T01:15:33.278Z,99.90
2019-02-24T01:16:36.898Z,99.90
2019-02-24T01:17:40.521Z,99.90
2019-02-24T01:18:44.138Z,99.90
2019-02-24T01:19:47.901Z,99.90
2019-02-24T01:20:52.002Z,99.90
2019-02-24T01:21:55.976Z,99.90
2019-02-24T01:22:59.628Z,99.90
2019-02-24T01:24:03.234Z,99.90
2019-02-24T01:25:07.149Z,99.90
2019-02-24T01:26:10.832Z,99.90
2019-02-24T01:27:14.523Z,99.90
2019-02-24T01:28:25.106Z,99.90
2019-02-24T01:29:23.834Z,99.90
2019-02-24T01:30:27.494Z,99.90
2019-02-24T01:31:31.104Z,99.90
2019-02-24T01:32:34.776Z,99.90
2019-02-24T01:33:38.430Z,99.90
2019-02-24T01:34:42.029Z,99.90
2019-02-24T01:35:45.700Z,99.90
2019-02-24T01:36:49.331Z,99.90
2019-02-24T01:37:52.963Z,99.90
2019-02-24T01:38:56.584Z,99.90
2019-02-24T01:40:00.261Z,99.90
2019-02-24T01:41:03.816Z,99.90
2019-02-24T01:42:07.473Z,99.90
2019-02-24T01:43:11.113Z,99.90
2019-02-24T01:44:14.822Z,99.90
2019-02-24T01:45:18.454Z,99.90
2019-02-24T01:46:22.045Z,99.90
2019-02-24T01:47:25.663Z,99.90
2019-02-24T01:48:29.317Z,99.90
2019-02-24T01:49:32.992Z,99.90
2019-02-24T01:50:36.612Z,99.90
2019-02-24T01:51:40.202Z,99.90
2019-02-24T01:52:43.834Z,99.90
2019-02-24T01:53:47.448Z,99.90
2019-02-24T01:54:51.180Z,99.90
2019-02-24T01:55:54.846Z,99.90
2019-02-24T01:56:58.472Z,99.90
2019-02-24T01:58:02.070Z,99.90
2019-02-24T01:59:05.645Z,99.90
2019-02-24T02:00:10.673Z,99.90
2019-02-24T02:01:14.308Z,99.90
2019-02-24T02:02:17.937Z,99.90
2019-02-24T02:03:21.516Z,99.90
2019-02-24T02:04:25.110Z,99.90
2019-02-24T02:05:28.718Z,99.90
2019-02-24T02:06:32.353Z,99.90
2019-02-24T02:07:35.984Z,99.90
2019-02-24T02:08:39.582Z,99.90
2019-02-24T02:09:43.194Z,99.90
2019-02-24T02:10:46.783Z,99.90
2019-02-24T02:11:50.404Z,99.90
2019-02-24T02:12:54.063Z,99.90
2019-02-24T02:13:57.656Z,99.90
2019-02-24T02:15:01.236Z,99.90
2019-02-24T02:16:04.935Z,99.90
2019-02-24T02:17:08.591Z,99.90
2019-02-24T02:18:12.248Z,99.90
2019-02-24T02:19:15.910Z,99.90
2019-02-24T02:20:19.543Z,99.90
2019-02-24T02:21:23.128Z,99.90
2019-02-24T02:22:26.752Z,99.90
2019-02-24T02:23:30.402Z,99.90
2019-02-24T02:24:34.013Z,99.90
2019-02-24T02:25:37.652Z,99.90
2019-02-24T02:26:41.276Z,99.90
2019-02-24T02:27:44.878Z,99.90
2019-02-24T02:28:48.484Z,99.90
2019-02-24T02:29:52.138Z,99.90
2019-02-24T02:30:55.729Z,99.90
2019-02-24T02:31:59.377Z,99.90
2019-02-24T02:33:02.974Z,99.90
2019-02-24T02:34:06.628Z,99.90
2019-02-24T02:35:10.212Z,99.90
2019-02-24T02:36:13.797Z,99.90
2019-02-24T02:37:17.467Z,99.90
2019-02-24T02:38:21.058Z,99.90
2019-02-24T02:39:24.685Z,99.90
2019-02-24T02:40:28.365Z,99.90
2019-02-24T02:41:32.028Z,99.90
2019-02-24T02:42:35.653Z,99.90
2019-02-24T02:43:39.300Z,99.90
2019-02-24T02:44:42.884Z,99.90
2019-02-24T02:45:46.491Z,99.90
2019-02-24T02:46:50.087Z,99.90
2019-02-24T02:47:53.757Z,99.90
2019-02-24T02:48:57.393Z,99.90
2019-02-24T02:50:01.010Z,99.90
2019-02-24T02:51:04.612Z,99.90
2019-02-24T02:52:08.208Z,99.90
2019-02-24T02:53:11.796Z,99.90
2019-02-24T02:54:15.452Z,99.90
2019-02-24T02:55:19.030Z,99.90
2019-02-24T02:56:22.666Z,99.90
2019-02-24T02:57:26.326Z,99.90
2019-02-24T02:58:29.993Z,99.90
2019-02-24T02:59:33.614Z,99.90
2019-02-24T03:00:37.335Z,99.90
2019-02-24T03:01:40.930Z,99.90
2019-02-24T03:02:44.519Z,99.90
2019-02-24T03:03:48.094Z,99.90
2019-02-24T03:04:52.145Z,99.90
2019-02-24T03:05:57.432Z,99.90
2019-02-24T03:07:02.745Z,99.90
2019-02-24T03:08:08.053Z,99.90
2019-02-24T03:09:11.746Z,99.90
2019-02-24T03:10:15.366Z,99.90
2019-02-24T03:11:19.089Z,99.90
2019-02-24T03:12:22.662Z,99.90
2019-02-24T03:13:26.302Z,99.90
2019-02-24T03:14:29.888Z,99.90
2019-02-24T03:15:33.560Z,99.90
2019-02-24T03:16:37.163Z,99.90
2019-02-24T03:17:40.776Z,99.90
2019-02-24T03:18:44.405Z,99.90
2019-02-24T03:19:48.036Z,99.90
2019-02-24T03:20:51.627Z,99.90
2019-02-24T03:21:55.235Z,99.90
2019-02-24T03:22:58.841Z,99.90
2019-02-24T03:24:02.491Z,99.90
2019-02-24T03:25:06.255Z,99.90
2019-02-24T03:26:09.860Z,99.90
2019-02-24T03:27:13.534Z,99.90
2019-02-24T03:28:17.150Z,99.90
2019-02-24T03:29:20.795Z,99.90
2019-02-24T03:30:24.453Z,99.90
2019-02-24T03:31:28.137Z,99.90
2019-02-24T03:32:31.696Z,99.90
2019-02-24T03:33:35.361Z,99.90
2019-02-24T03:34:38.940Z,99.90
2019-02-24T03:35:42.536Z,99.90
2019-02-24T03:36:46.125Z,99.90
2019-02-24T03:37:49.730Z,99.90
2019-02-24T03:38:53.380Z,99.90
2019-02-24T03:39:56.955Z,99.90
2019-02-24T03:41:00.555Z,99.90
2019-02-24T03:42:04.229Z,99.90
2019-02-24T03:43:07.829Z,99.90
2019-02-24T03:44:11.495Z,99.90
2019-02-24T03:45:15.170Z,99.90
2019-02-24T03:46:18.757Z,99.90
2019-02-24T03:47:22.366Z,99.90
2019-02-24T03:48:25.957Z,99.90
2019-02-24T03:49:29.610Z,99.90
2019-02-24T03:50:33.202Z,99.90
2019-02-24T03:51:36.789Z,99.90
2019-02-24T03:52:40.380Z,99.90
2019-02-24T03:53:44.055Z,99.90
2019-02-24T03:54:47.701Z,99.90
2019-02-24T03:55:51.371Z,99.90
2019-02-24T03:56:54.954Z,99.90
2019-02-24T03:57:58.669Z,99.90
2019-02-24T03:59:02.462Z,99.90
2019-02-24T04:00:07.285Z,99.90
2019-02-24T04:01:10.946Z,99.90
2019-02-24T04:02:14.524Z,99.90
2019-02-24T04:03:18.260Z,99.90
2019-02-24T04:04:22.055Z,99.90
2019-02-24T04:05:25.652Z,99.90
2019-02-24T04:06:29.280Z,99.90
2019-02-24T04:07:32.863Z,99.90
2019-02-24T04:08:36.500Z,99.90
2019-02-24T04:09:40.092Z,99.90
2019-02-24T04:10:43.693Z,99.90
2019-02-24T04:11:47.294Z,99.90
2019-02-24T04:12:50.961Z,99.90
2019-02-24T04:13:54.645Z,99.90
2019-02-24T04:14:58.314Z,99.90
2019-02-24T04:16:01.991Z,99.90
2019-02-24T04:17:05.685Z,99.90
2019-02-24T04:18:09.305Z,99.90
2019-02-24T04:19:12.987Z,99.90
2019-02-24T04:20:16.656Z,99.90
2019-02-24T04:21:20.267Z,99.90
2019-02-24T04:22:23.834Z,99.90
2019-02-24T04:23:27.421Z,99.90
2019-02-24T04:24:31.122Z,99.90
2019-02-24T04:25:34.708Z,99.90
2019-02-24T04:26:38.292Z,99.90
2019-02-24T04:27:41.889Z,99.90
2019-02-24T04:28:45.490Z,99.90
2019-02-24T04:29:49.134Z,99.90
2019-02-24T04:30:52.788Z,99.90
2019-02-24T04:31:56.398Z,99.90
2019-02-24T04:32:59.977Z,99.90
2019-02-24T04:34:03.593Z,99.90
2019-02-24T04:35:07.168Z,99.90
2019-02-24T04:36:10.814Z,99.90
2019-02-24T04:37:14.391Z,99.90
2019-02-24T04:38:18.049Z,99.90
2019-02-24T04:39:21.695Z,99.90
2019-02-24T04:40:25.317Z,99.90
2019-02-24T04:41:28.903Z,99.90
2019-02-24T04:42:32.521Z,99.90
2019-02-24T04:43:36.109Z,99.90
2019-02-24T04:44:39.811Z,99.90
2019-02-24T04:45:43.390Z,99.90
2019-02-24T04:46:46.992Z,99.90
2019-02-24T04:47:50.623Z,99.90
2019-02-24T04:48:54.239Z,99.90
2019-02-24T04:49:57.900Z,99.90
2019-02-24T04:51:01.550Z,99.90
2019-02-24T04:52:05.202Z,99.90
2019-02-24T04:53:08.828Z,99.90
2019-02-24T04:54:12.444Z,99.90
2019-02-24T04:55:16.042Z,99.90
2019-02-24T04:56:19.674Z,99.90
2019-02-24T04:57:23.310Z,99.90
2019-02-24T04:58:26.905Z,99.90
2019-02-24T04:59:35.059Z,99.90
2019-02-24T05:00:35.795Z,99.90
2019-02-24T05:01:39.453Z,99.90
2019-02-24T05:02:43.041Z,99.90
2019-02-24T05:03:46.645Z,99.90
2019-02-24T05:04:50.343Z,99.90
2019-02-24T05:05:53.909Z,99.90
2019-02-24T05:06:57.563Z,99.90
2019-02-24T05:08:01.153Z,99.90
2019-02-24T05:09:05.041Z,99.90
2019-02-24T05:10:08.730Z,99.90
2019-02-24T05:11:12.734Z,99.90
2019-02-24T05:12:16.328Z,99.90
2019-02-24T05:13:20.017Z,99.90
2019-02-24T05:14:23.690Z,99.90
2019-02-24T05:15:27.279Z,99.90
2019-02-24T05:16:30.896Z,99.90
2019-02-24T05:17:34.473Z,99.90
2019-02-24T05:18:38.124Z,99.90
2019-02-24T05:19:41.741Z,99.90
2019-02-24T05:20:45.349Z,99.90
2019-02-24T05:21:49.066Z,99.90
2019-02-24T05:22:52.663Z,99.90
2019-02-24T05:23:56.315Z,99.90
2019-02-24T05:24:59.929Z,99.90
2019-02-24T05:26:03.604Z,99.90
2019-02-24T05:27:07.197Z,99.90
2019-02-24T05:28:10.816Z,99.90
2019-02-24T05:29:14.475Z,99.90
2019-02-24T05:30:18.096Z,99.90
2019-02-24T05:31:21.694Z,99.90
2019-02-24T05:32:25.277Z,99.90
2019-02-24T05:33:28.898Z,99.90
2019-02-24T05:34:32.589Z,99.90
2019-02-24T05:35:36.277Z,99.90
2019-02-24T05:36:40.012Z,99.90
2019-02-24T05:37:43.598Z,99.90
2019-02-24T05:38:47.219Z,99.90
2019-02-24T05:39:50.876Z,99.90
2019-02-24T05:40:54.496Z,99.90
2019-02-24T05:41:58.107Z,99.90
2019-02-24T05:43:01.703Z,99.90
2019-02-24T05:44:05.310Z,99.90
2019-02-24T05:45:09.019Z,99.90
2019-02-24T05:46:12.606Z,99.90
2019-02-24T05:47:16.221Z,99.90
2019-02-24T05:48:19.849Z,99.90
2019-02-24T05:49:23.452Z,99.90
2019-02-24T05:50:27.126Z,99.90
2019-02-24T05:51:30.751Z,99.90
2019-02-24T05:52:34.382Z,99.90
2019-02-24T05:53:37.978Z,99.90
2019-02-24T05:54:41.596Z,99.90
2019-02-24T05:55:45.258Z,99.90
2019-02-24T05:56:48.885Z,99.90
2019-02-24T05:57:52.559Z,99.90
2019-02-24T05:58:56.224Z,99.90
2019-02-24T05:59:59.821Z,99.90
2019-02-24T06:01:03.460Z,99.90
2019-02-24T06:02:07.103Z,99.90
2019-02-24T06:03:10.761Z,99.90
2019-02-24T06:04:14.382Z,99.90
2019-02-24T06:05:18.049Z,99.90
2019-02-24T06:06:21.644Z,99.90
2019-02-24T06:07:25.239Z,99.90
2019-02-24T06:08:28.882Z,99.90
2019-02-24T06:09:32.478Z,99.90
2019-02-24T06:10:36.153Z,99.90
2019-02-24T06:11:39.767Z,99.90
2019-02-24T06:12:43.456Z,99.90
2019-02-24T06:13:47.061Z,99.90
2019-02-24T06:14:50.653Z,99.90
2019-02-24T06:15:54.270Z,99.90
2019-02-24T06:16:57.957Z,99.90
2019-02-24T06:18:01.598Z,99.90
2019-02-24T06:19:05.207Z,99.90
2019-02-24T06:20:08.884Z,99.90
2019-02-24T06:21:12.610Z,99.90
2019-02-24T06:22:16.239Z,99.90
2019-02-24T06:23:19.907Z,99.90
2019-02-24T06:24:23.495Z,99.90
2019-02-24T06:25:27.123Z,99.90
2019-02-24T06:26:30.706Z,99.90
2019-02-24T06:27:34.313Z,99.90
2019-02-24T06:28:37.981Z,99.90
2019-02-24T06:29:41.564Z,99.90
2019-02-24T06:30:45.171Z,99.90
2019-02-24T06:31:48.763Z,99.90
2019-02-24T06:32:52.368Z,99.90
2019-02-24T06:33:56.035Z,99.90
2019-02-24T06:34:59.638Z,99.90
2019-02-24T06:36:03.247Z,99.90
2019-02-24T06:37:06.995Z,99.90
2019-02-24T06:38:10.586Z,99.90
2019-02-24T06:39:14.563Z,99.90
2019-02-24T06:40:18.288Z,99.90
2019-02-24T06:41:21.918Z,99.90
2019-02-24T06:42:25.517Z,99.90
2019-02-24T06:43:29.144Z,99.90
2019-02-24T06:44:32.795Z,99.90
2019-02-24T06:45:36.418Z,99.90
2019-02-24T06:46:40.025Z,99.90
2019-02-24T06:47:43.625Z,99.90
2019-02-24T06:48:47.219Z,99.90
2019-02-24T06:49:50.924Z,99.90
2019-02-24T06:51:02.165Z,99.90
2019-02-24T06:52:05.768Z,99.90
2019-02-24T06:53:09.379Z,99.90
2019-02-24T06:54:12.982Z,99.90
2019-02-24T06:55:16.617Z,99.90
2019-02-24T06:56:20.218Z,99.90
2019-02-24T06:57:23.843Z,99.90
2019-02-24T06:58:27.426Z,99.90
2019-02-24T06:59:31.045Z,99.90
2019-02-24T07:00:34.664Z,99.90
2019-02-24T07:01:38.247Z,99.90
2019-02-24T07:02:41.901Z,99.90
2019-02-24T07:03:45.505Z,99.90
2019-02-24T07:04:49.100Z,99.90
2019-02-24T07:05:52.756Z,99.90
2019-02-24T07:06:56.403Z,99.90
2019-02-24T07:07:59.986Z,99.90
2019-02-24T07:09:04.696Z,99.90
2019-02-24T07:10:08.382Z,99.90
2019-02-24T07:11:12.017Z,99.90
2019-02-24T07:12:15.622Z,99.90
2019-02-24T07:13:19.207Z,99.90
2019-02-24T07:14:22.810Z,99.90
2019-02-24T07:15:26.526Z,99.90
2019-02-24T07:16:30.139Z,99.90
2019-02-24T07:17:33.717Z,99.90
2019-02-24T07:18:37.361Z,99.90
2019-02-24T07:19:41.000Z,99.90
2019-02-24T07:20:44.597Z,99.90
2019-02-24T07:21:48.217Z,99.90
2019-02-24T07:22:51.862Z,99.90
2019-02-24T07:23:55.570Z,99.90
2019-02-24T07:24:59.158Z,99.90
2019-02-24T07:26:02.767Z,99.90
2019-02-24T07:27:06.417Z,99.90
2019-02-24T07:28:10.091Z,99.90
2019-02-24T07:29:13.686Z,99.90
2019-02-24T07:30:23.582Z,99.90
2019-02-24T07:31:22.537Z,99.90
2019-02-24T07:32:26.196Z,99.90
2019-02-24T07:33:29.828Z,99.90
2019-02-24T07:34:33.429Z,99.90
2019-02-24T07:35:37.043Z,99.90
2019-02-24T07:36:40.709Z,99.90
2019-02-24T07:37:44.361Z,99.90
2019-02-24T07:38:48.135Z,99.90
2019-02-24T07:39:51.918Z,99.90
2019-02-24T07:40:55.595Z,99.90
2019-02-24T07:41:59.312Z,99.90
2019-02-24T07:43:02.989Z,99.90
2019-02-24T07:44:06.662Z,99.90
2019-02-24T07:45:10.426Z,99.90
2019-02-24T07:46:13.997Z,99.90
2019-02-24T07:47:17.699Z,99.90
2019-02-24T07:48:21.363Z,99.90
2019-02-24T07:49:24.948Z,99.90
2019-02-24T07:50:28.651Z,99.90
2019-02-24T07:51:32.250Z,99.90
2019-02-24T07:52:36.012Z,99.90
2019-02-24T07:53:39.610Z,99.90
2019-02-24T07:54:43.209Z,99.90
2019-02-24T07:55:46.874Z,99.90
2019-02-24T07:56:50.695Z,99.90
2019-02-24T07:57:54.351Z,99.90
2019-02-24T07:58:58.051Z,99.90
2019-02-24T08:00:01.830Z,99.90
2019-02-24T08:01:05.481Z,99.90
2019-02-24T08:02:09.095Z,99.90
2019-02-24T08:03:12.685Z,99.90
2019-02-24T08:04:16.325Z,99.90
2019-02-24T08:05:19.941Z,99.90
2019-02-24T08:06:23.536Z,99.90
2019-02-24T08:07:27.115Z,99.90
2019-02-24T08:08:30.706Z,99.90
2019-02-24T08:09:34.368Z,99.90
2019-02-24T08:10:38.005Z,99.90
2019-02-24T08:11:41.706Z,99.90
2019-02-24T08:12:45.326Z,99.90
2019-02-24T08:13:54.840Z,99.90
2019-02-24T08:14:58.504Z,99.90
2019-02-24T08:16:02.086Z,99.90
2019-02-24T08:17:05.755Z,99.90
2019-02-24T08:18:09.359Z,99.90
2019-02-24T08:19:12.963Z,99.90
2019-02-24T08:20:16.579Z,99.90
2019-02-24T08:21:20.205Z,99.90
2019-02-24T08:22:23.893Z,99.90
2019-02-24T08:23:27.522Z,99.90
2019-02-24T08:24:31.146Z,99.90
2019-02-24T08:25:34.819Z,99.90
2019-02-24T08:26:38.463Z,99.90
2019-02-24T08:27:42.093Z,99.90
2019-02-24T08:28:45.671Z,99.90
2019-02-24T08:29:49.264Z,99.90
2019-02-24T08:30:53.062Z,99.90
2019-02-24T08:31:56.672Z,99.90
2019-02-24T08:33:00.305Z,99.90
2019-02-24T08:34:03.959Z,99.90
2019-02-24T08:35:08.186Z,99.90
2019-02-24T08:36:11.776Z,99.90
2019-02-24T08:37:15.489Z,99.90
2019-02-24T08:38:19.118Z,99.90
2019-02-24T08:39:22.720Z,99.90
2019-02-24T08:40:26.308Z,99.90
2019-02-24T08:41:29.914Z,99.90
2019-02-24T08:42:33.544Z,99.90
2019-02-24T08:43:37.149Z,99.90
2019-02-24T08:44:40.737Z,99.90
2019-02-24T08:45:44.374Z,99.90
2019-02-24T08:46:47.959Z,99.90
2019-02-24T08:47:51.590Z,99.90
2019-02-24T08:48:55.177Z,99.90
2019-02-24T08:49:58.764Z,99.90
2019-02-24T08:51:02.368Z,99.90
2019-02-24T08:52:06.008Z,99.90
2019-02-24T08:53:09.655Z,99.90
2019-02-24T08:54:13.281Z,99.90
2019-02-24T08:55:16.964Z,99.90
2019-02-24T08:56:20.537Z,99.90
2019-02-24T08:57:24.184Z,99.90
2019-02-24T08:58:27.784Z,99.90
2019-02-24T08:59:31.406Z,99.90
2019-02-24T09:00:34.942Z,99.90
2019-02-24T09:01:38.540Z,99.90
2019-02-24T09:02:42.186Z,99.90
2019-02-24T09:03:45.779Z,99.90
2019-02-24T09:04:49.457Z,99.90
2019-02-24T09:05:53.039Z,99.90
2019-02-24T09:06:56.618Z,99.90
2019-02-24T09:08:00.218Z,99.90
2019-02-24T09:09:04.179Z,99.90
2019-02-24T09:10:09.280Z,99.90
2019-02-24T09:11:12.868Z,99.90
2019-02-24T09:12:16.472Z,99.90
2019-02-24T09:13:20.042Z,99.90
2019-02-24T09:14:23.651Z,99.90
2019-02-24T09:15:27.309Z,99.90
2019-02-24T09:16:30.912Z,99.90
2019-02-24T09:17:34.491Z,99.90
2019-02-24T09:18:38.101Z,99.90
2019-02-24T09:19:41.708Z,99.90
2019-02-24T09:20:45.346Z,99.90
2019-02-24T09:21:48.940Z,99.90
2019-02-24T09:22:52.562Z,99.90
2019-02-24T09:23:56.147Z,99.90
2019-02-24T09:24:59.746Z,99.90
2019-02-24T09:26:03.379Z,99.90
2019-02-24T09:27:06.979Z,99.90
2019-02-24T09:28:10.595Z,99.90
2019-02-24T09:29:14.241Z,99.90
2019-02-24T09:30:17.853Z,99.90
2019-02-24T09:31:21.492Z,99.90
2019-02-24T09:32:25.186Z,99.90
2019-02-24T09:33:28.774Z,99.90
2019-02-24T09:34:32.379Z,99.90
2019-02-24T09:35:35.949Z,99.90
2019-02-24T09:36:39.639Z,99.90
2019-02-24T09:37:43.220Z,99.90
2019-02-24T09:38:46.841Z,99.90
2019-02-24T09:39:50.430Z,99.90
2019-02-24T09:40:54.042Z,99.90
2019-02-24T09:41:57.696Z,99.90
2019-02-24T09:43:01.275Z,99.90
2019-02-24T09:44:04.905Z,99.90
2019-02-24T09:45:10.584Z,99.90
2019-02-24T09:46:14.176Z,97.40
2019-02-24T09:47:17.755Z,91.40
2019-02-24T09:48:21.416Z,81.30
2019-02-24T09:49:25.052Z,70.50
2019-02-24T09:50:28.652Z,60.40
2019-02-24T09:51:32.272Z,55.00
2019-02-24T09:52:35.847Z,53.60
2019-02-24T09:53:39.428Z,49.40
2019-02-24T09:54:43.121Z,47.20
2019-02-24T09:55:46.741Z,46.40
2019-02-24T09:56:50.345Z,46.10
2019-02-24T09:57:53.921Z,44.90
2019-02-24T09:58:57.502Z,44.70
2019-02-24T10:00:01.108Z,43.90
2019-02-24T10:01:10.545Z,43.20
2019-02-24T10:02:10.125Z,41.70
2019-02-24T10:03:13.727Z,40.30
2019-02-24T10:04:17.337Z,37.90
2019-02-24T10:05:20.925Z,38.30
2019-02-24T10:06:24.569Z,37.50
2019-02-24T10:07:28.239Z,36.30
2019-02-24T10:08:31.822Z,36.80
2019-02-24T10:09:35.415Z,36.50
2019-02-24T10:10:39.008Z,35.20
2019-02-24T10:11:42.643Z,34.60
2019-02-24T10:12:46.301Z,35.20
2019-02-24T10:13:51.265Z,35.10
2019-02-24T10:14:54.909Z,34.70
2019-02-24T10:15:58.564Z,33.40
2019-02-24T10:17:02.171Z,33.70
2019-02-24T10:18:05.765Z,34.40
2019-02-24T10:19:09.375Z,32.20
2019-02-24T10:20:13.427Z,32.60
2019-02-24T10:21:17.066Z,32.70
2019-02-24T10:22:20.677Z,34.10
2019-02-24T10:23:24.260Z,32.20
2019-02-24T10:24:27.842Z,32.70
2019-02-24T10:25:31.442Z,32.30
2019-02-24T10:26:35.097Z,31.70
2019-02-24T10:27:38.751Z,32.00
2019-02-24T10:28:42.324Z,32.40
2019-02-24T10:29:45.978Z,33.20
2019-02-24T10:30:49.621Z,33.60
2019-02-24T10:31:53.242Z,34.00
2019-02-24T10:32:56.853Z,34.60
2019-02-24T10:34:00.448Z,34.10
2019-02-24T10:35:04.646Z,34.90
2019-02-24T10:36:08.271Z,33.80
2019-02-24T10:37:11.872Z,34.30
2019-02-24T10:38:15.451Z,34.80
2019-02-24T10:39:19.128Z,34.30
2019-02-24T10:40:22.750Z,34.10
2019-02-24T10:41:26.393Z,34.20
2019-02-24T10:42:30.039Z,33.70
2019-02-24T10:43:33.629Z,33.70
2019-02-24T10:44:37.230Z,33.80
2019-02-24T10:45:40.851Z,34.20
2019-02-24T10:46:44.554Z,34.50
2019-02-24T10:47:48.239Z,34.50
2019-02-24T10:48:51.865Z,33.40
2019-02-24T10:49:55.502Z,33.30
2019-02-24T10:50:59.157Z,33.70
2019-02-24T10:52:02.858Z,33.80
2019-02-24T10:53:06.525Z,33.80
2019-02-24T10:54:10.133Z,34.10
2019-02-24T10:55:13.869Z,34.40
2019-02-24T10:56:17.459Z,35.10
2019-02-24T10:57:21.052Z,34.20
2019-02-24T10:58:24.753Z,34.20
2019-02-24T10:59:28.374Z,35.20
2019-02-24T11:00:32.031Z,35.20
2019-02-24T11:01:35.645Z,35.30
2019-02-24T11:02:39.273Z,34.20
2019-02-24T11:03:43.006Z,35.00
2019-02-24T11:04:46.619Z,35.30
2019-02-24T11:05:50.252Z,35.60
2019-02-24T11:06:53.860Z,34.90
2019-02-24T11:07:57.445Z,35.90
2019-02-24T11:09:01.077Z,35.80
2019-02-24T11:10:07.212Z,35.80
2019-02-24T11:11:10.864Z,37.10
2019-02-24T11:12:14.482Z,36.40
2019-02-24T11:13:18.096Z,36.70
2019-02-24T11:14:21.747Z,37.60
2019-02-24T11:15:25.340Z,36.60
2019-02-24T11:16:29.032Z,37.30
2019-02-24T11:17:32.623Z,36.80
2019-02-24T11:18:36.207Z,36.90
2019-02-24T11:19:39.842Z,36.80
2019-02-24T11:20:43.517Z,36.80
2019-02-24T11:21:47.194Z,35.70
2019-02-24T11:22:50.788Z,36.80
2019-02-24T11:23:54.422Z,37.80
2019-02-24T11:24:58.009Z,37.40
2019-02-24T11:26:02.530Z,37.10
2019-02-24T11:27:06.160Z,37.30
2019-02-24T11:28:09.753Z,37.40
2019-02-24T11:29:13.376Z,38.50
2019-02-24T11:30:17.088Z,37.70
2019-02-24T11:31:20.707Z,36.90
2019-02-24T11:32:24.324Z,37.50
2019-02-24T11:33:27.973Z,38.10
2019-02-24T11:34:31.586Z,37.50
2019-02-24T11:35:35.256Z,37.50
2019-02-24T11:36:38.907Z,39.40
2019-02-24T11:37:42.541Z,38.10
2019-02-24T11:38:46.134Z,38.80
2019-02-24T11:39:49.751Z,38.40
2019-02-24T11:40:53.386Z,40.10
2019-02-24T11:41:57.067Z,40.30
2019-02-24T11:43:00.697Z,41.00
2019-02-24T11:44:04.362Z,38.90
2019-02-24T11:45:09.237Z,38.20
2019-02-24T11:46:12.822Z,38.90
2019-02-24T11:47:16.456Z,38.80
2019-02-24T11:48:20.068Z,39.10
2019-02-24T11:49:24.146Z,40.20
2019-02-24T11:50:27.767Z,39.70
2019-02-24T11:51:31.378Z,40.00
2019-02-24T11:52:35.019Z,40.10
2019-02-24T11:53:38.606Z,38.60
2019-02-24T11:54:42.235Z,37.80
2019-02-24T11:55:45.895Z,37.90
2019-02-24T11:56:49.473Z,37.80
2019-02-24T11:57:53.064Z,38.30
2019-02-24T11:58:56.705Z,37.90
2019-02-24T12:00:00.390Z,37.40
2019-02-24T12:01:04.028Z,37.60
2019-02-24T12:02:07.744Z,38.10
2019-02-24T12:03:11.350Z,38.40
2019-02-24T12:04:14.942Z,38.40
2019-02-24T12:05:18.702Z,38.20
2019-02-24T12:06:22.327Z,37.20
2019-02-24T12:07:25.911Z,36.90
2019-02-24T12:08:29.508Z,35.70
2019-02-24T12:09:33.182Z,35.80
2019-02-24T12:10:36.877Z,36.00
2019-02-24T12:11:40.544Z,35.40
2019-02-24T12:12:44.175Z,34.40
2019-02-24T12:13:47.844Z,35.30
2019-02-24T12:14:51.494Z,35.70
2019-02-24T12:15:55.107Z,35.10
2019-02-24T12:16:58.742Z,35.60
2019-02-24T12:18:02.317Z,34.30
2019-02-24T12:19:05.930Z,32.80
2019-02-24T12:20:11.485Z,34.90
2019-02-24T12:21:15.110Z,32.10
2019-02-24T12:22:18.730Z,32.70
2019-02-24T12:23:22.329Z,32.40
2019-02-24T12:24:25.917Z,32.30
2019-02-24T12:25:29.530Z,31.90
2019-02-24T12:26:33.115Z,32.00
2019-02-24T12:27:36.753Z,31.10
2019-02-24T12:28:40.414Z,30.50
2019-02-24T12:29:44.006Z,30.30
2019-02-24T12:30:47.627Z,30.50
2019-02-24T12:31:56.610Z,31.00
2019-02-24T12:32:56.554Z,30.00
2019-02-24T12:34:00.193Z,31.20
2019-02-24T12:35:03.979Z,31.80
2019-02-24T12:36:07.706Z,31.90
2019-02-24T12:37:11.325Z,30.30
2019-02-24T12:38:14.938Z,31.10
2019-02-24T12:39:18.704Z,31.60
2019-02-24T12:40:22.271Z,30.60
2019-02-24T12:41:25.963Z,30.00
2019-02-24T12:42:29.614Z,31.30
2019-02-24T12:43:33.208Z,30.00
2019-02-24T12:44:36.802Z,29.20
2019-02-24T12:45:40.411Z,29.50
2019-02-24T12:46:44.001Z,30.30
2019-02-24T12:47:47.646Z,29.60
2019-02-24T12:48:51.348Z,29.30
2019-02-24T12:50:02.928Z,28.60
2019-02-24T12:51:00.307Z,29.40
2019-02-24T12:52:03.991Z,29.20
2019-02-24T12:53:07.616Z,29.40
2019-02-24T12:54:11.231Z,29.70
2019-02-24T12:55:14.995Z,29.90
2019-02-24T12:56:18.630Z,29.30
2019-02-24T12:57:22.266Z,29.80
2019-02-24T12:58:25.865Z,30.00
2019-02-24T12:59:29.562Z,29.90
2019-02-24T13:00:33.344Z,29.70
2019-02-24T13:01:36.930Z,29.10
2019-02-24T13:02:40.599Z,29.70
2019-02-24T13:03:44.280Z,28.70
2019-02-24T13:04:47.862Z,28.50
2019-02-24T13:05:51.582Z,28.60
2019-02-24T13:06:55.175Z,28.70
2019-02-24T13:07:58.819Z,28.30
2019-02-24T13:09:02.422Z,28.20
2019-02-24T13:10:11.371Z,28.30
2019-02-24T13:11:15.005Z,28.00
2019-02-24T13:12:18.608Z,29.30
2019-02-24T13:13:22.163Z,28.30
2019-02-24T13:14:25.758Z,28.50
2019-02-24T13:15:29.403Z,28.10
2019-02-24T13:16:33.001Z,27.70
2019-02-24T13:17:36.598Z,28.00
2019-02-24T13:18:40.398Z,29.10
2019-02-24T13:19:44.017Z,28.70
2019-02-24T13:20:47.616Z,28.20
2019-02-24T13:21:51.218Z,28.70
2019-02-24T13:22:54.888Z,28.50
2019-02-24T13:23:58.533Z,28.20
2019-02-24T13:25:02.106Z,27.80
2019-02-24T13:26:05.778Z,27.90
2019-02-24T13:27:09.459Z,27.80
2019-02-24T13:28:13.239Z,28.60
2019-02-24T13:29:16.884Z,28.60
2019-02-24T13:30:20.490Z,28.10
2019-02-24T13:31:24.055Z,27.80
2019-02-24T13:32:27.653Z,27.90
2019-02-24T13:33:31.260Z,28.10
2019-02-24T13:34:34.988Z,27.80
2019-02-24T13:35:40.511Z,28.20
2019-02-24T13:36:43.834Z,28.00
2019-02-24T13:37:47.482Z,27.60
2019-02-24T13:38:51.207Z,27.80
2019-02-24T13:39:54.830Z,27.00